createdAt,value
2023-01-10T00:00:06.233Z,4.1
2023-01-10T00:01:06.062Z,4.1
2023-01-10T00:02:05.449Z,4.1
2023-01-10T00:03:06.195Z,4.1
2023-01-10T00:04:05.014Z,4.1
2023-01-10T00:05:06.461Z,4.1
2023-01-10T00:06:06.294Z,4.1
2023-01-10T00:07:06.502Z,4
2023-01-10T00:08:06.234Z,4.1
2023-01-10T00:09:05.768Z,4
2023-01-10T00:10:05.931Z,4
2023-01-10T00:11:06.036Z,4.1
2023-01-10T00:12:06.209Z,4.1
2023-01-10T00:13:06.646Z,4.1
2023-01-10T00:14:05.482Z,4.1
2023-01-10T00:15:05.259Z,4.1
2023-01-10T00:16:05.261Z,4.1
2023-01-10T00:17:05.797Z,4.1
2023-01-10T00:18:06.434Z,4.1
2023-01-10T00:19:05.940Z,4
2023-01-10T00:20:05.924Z,4.1
2023-01-10T00:21:05.823Z,4
2023-01-10T00:22:06.096Z,4.1
2023-01-10T00:23:06.223Z,4.1
2023-01-10T00:24:06.482Z,4.1
2023-01-10T00:25:06.508Z,4.1
2023-01-10T00:26:05.794Z,4.2
2023-01-10T00:27:06.580Z,4.2
2023-01-10T00:28:05.329Z,4.1
2023-01-10T00:29:05.623Z,4.1
2023-01-10T00:30:05.614Z,4.1
2023-01-10T00:31:06.898Z,4
2023-01-10T00:32:05.669Z,4.1
2023-01-10T00:33:06.094Z,4.1
2023-01-10T00:34:05.759Z,4.1
2023-01-10T00:35:06.071Z,4.1
2023-01-10T00:36:06.247Z,4.2
2023-01-10T00:37:06.013Z,4.2
2023-01-10T00:38:05.966Z,4.2
2023-01-10T00:39:06.019Z,4.1
2023-01-10T00:40:06.247Z,4.2
2023-01-10T00:41:06.049Z,4.2
2023-01-10T00:42:06.157Z,4.2
2023-01-10T00:43:06.291Z,4.1
2023-01-10T00:44:06.549Z,4.2
2023-01-10T00:45:06.128Z,4.2
2023-01-10T00:46:06.165Z,4
2023-01-10T00:47:06.374Z,4
2023-01-10T00:48:06.605Z,4.2
2023-01-10T00:49:06.044Z,4.2
2023-01-10T00:50:05.567Z,4.2
2023-01-10T00:51:06.064Z,4.2
2023-01-10T00:52:06.517Z,4.2
2023-01-10T00:53:06.611Z,4.2
2023-01-10T00:54:05.571Z,4
2023-01-10T00:55:06.472Z,4.2
2023-01-10T00:56:05.835Z,4.2
2023-01-10T00:57:06.313Z,4.2
2023-01-10T00:58:06.262Z,4.2
2023-01-10T00:59:06.293Z,4.2
2023-01-10T01:00:05.746Z,4.2
2023-01-10T01:01:06.484Z,4.2
2023-01-10T01:02:06.594Z,4.2
2023-01-10T01:03:06.142Z,4.2
2023-01-10T01:04:06.321Z,4.2
2023-01-10T01:05:06.641Z,4.2
2023-01-10T01:06:05.979Z,4.2
2023-01-10T01:07:05.195Z,4.2
2023-01-10T01:08:06.005Z,4.2
2023-01-10T01:09:06.093Z,4.1
2023-01-10T01:10:05.898Z,4.2
2023-01-10T01:11:06.280Z,4.2
2023-01-10T01:12:05.689Z,4.2
2023-01-10T01:13:06.140Z,4.2
2023-01-10T01:14:06.631Z,4.2
2023-01-10T01:15:06.512Z,4.2
2023-01-10T01:16:06.039Z,4.2
2023-01-10T01:17:06.467Z,4
2023-01-10T01:18:06.553Z,4.1
2023-01-10T01:19:06.585Z,4
2023-01-10T01:20:06.607Z,4.2
2023-01-10T01:21:06.070Z,4.2
2023-01-10T01:22:05.199Z,4.2
2023-01-10T01:23:06.249Z,4.1
2023-01-10T01:24:05.835Z,4.1
2023-01-10T01:25:06.230Z,4.1
2023-01-10T01:26:06.674Z,4.1
2023-01-10T01:27:06.241Z,4
2023-01-10T01:28:06.465Z,4.1
2023-01-10T01:29:06.137Z,4.1
2023-01-10T01:30:06.620Z,4.1
2023-01-10T01:31:05.950Z,4
2023-01-10T01:32:05.596Z,4.1
2023-01-10T01:33:06.711Z,4.1
2023-01-10T01:34:05.996Z,4.1
2023-01-10T01:35:06.364Z,4.1
2023-01-10T01:36:05.651Z,4.1
2023-01-10T01:37:06.048Z,4.1
2023-01-10T01:38:06.532Z,4.1
2023-01-10T01:39:06.594Z,4.1
2023-01-10T01:40:05.968Z,4.1
2023-01-10T01:41:06.546Z,4.1
2023-01-10T01:42:05.959Z,4
2023-01-10T01:43:05.867Z,4.1
2023-01-10T01:44:06.465Z,4.1
2023-01-10T01:45:06.033Z,4.1
2023-01-10T01:46:05.875Z,4.1
2023-01-10T01:47:06.593Z,4.1
2023-01-10T01:48:05.911Z,4.1
2023-01-10T01:49:06.117Z,4.1
2023-01-10T01:50:06.752Z,4.1
2023-01-10T01:51:05.809Z,4.1
2023-01-10T01:52:06.366Z,4.1
2023-01-10T01:53:05.572Z,4
2023-01-10T01:54:05.598Z,4.1
2023-01-10T01:55:05.990Z,4.1
2023-01-10T01:56:05.936Z,4.1
2023-01-10T01:57:06.102Z,4.1
2023-01-10T01:58:06.477Z,4.1
2023-01-10T01:59:04.917Z,4.1
2023-01-10T02:00:06.347Z,4.1
2023-01-10T02:01:05.711Z,4
2023-01-10T02:02:06.698Z,4.1
2023-01-10T02:03:07.467Z,4.1
2023-01-10T02:04:06.408Z,4.1
2023-01-10T02:05:06.445Z,4.1
2023-01-10T02:06:05.909Z,4.1
2023-01-10T02:07:06.467Z,4.1
2023-01-10T02:08:05.730Z,4.1
2023-01-10T02:09:06.291Z,4.1
2023-01-10T02:10:05.875Z,4.1
2023-01-10T02:11:05.813Z,4.1
2023-01-10T02:12:06.353Z,4.1
2023-01-10T02:13:06.556Z,4.1
2023-01-10T02:14:05.777Z,4.1
2023-01-10T02:15:06.380Z,4.1
2023-01-10T02:16:05.095Z,4.1
2023-01-10T02:17:06.214Z,4.1
2023-01-10T02:18:05.754Z,4.1
2023-01-10T02:19:05.855Z,4.1
2023-01-10T02:20:06.523Z,4.1
2023-01-10T02:21:05.901Z,4.1
2023-01-10T02:22:06.016Z,4.1
2023-01-10T02:23:05.300Z,4.1
2023-01-10T02:24:06.128Z,4
2023-01-10T02:25:06.214Z,4.1
2023-01-10T02:26:05.959Z,4
2023-01-10T02:27:06.271Z,4.2
2023-01-10T02:28:05.621Z,4
2023-01-10T02:29:06.695Z,4
2023-01-10T02:30:05.968Z,4.1
2023-01-10T02:31:06.303Z,4.1
2023-01-10T02:32:05.311Z,4.1
2023-01-10T02:33:09.784Z,4.1
2023-01-10T02:34:06.556Z,4.1
2023-01-10T02:35:05.964Z,4.1
2023-01-10T02:36:04.907Z,4.1
2023-01-10T02:37:06.166Z,4.1
2023-01-10T02:38:05.731Z,4.1
2023-01-10T02:39:05.771Z,4.1
2023-01-10T02:40:06.016Z,4
2023-01-10T02:41:06.073Z,4
2023-01-10T02:42:06.294Z,4
2023-01-10T02:43:06.305Z,4.1
2023-01-10T02:44:06.453Z,4
2023-01-10T02:45:06.574Z,4
2023-01-10T02:46:06.088Z,4
2023-01-10T02:47:06.200Z,4
2023-01-10T02:48:06.446Z,4
2023-01-10T02:49:05.605Z,4
2023-01-10T02:50:06.487Z,4
2023-01-10T02:51:05.703Z,4
2023-01-10T02:52:06.674Z,4
2023-01-10T02:53:06.440Z,4
2023-01-10T02:54:04.814Z,4
2023-01-10T02:55:06.003Z,4
2023-01-10T02:56:06.627Z,4
2023-01-10T02:57:05.827Z,4
2023-01-10T02:58:06.011Z,4
2023-01-10T02:59:06.083Z,4
2023-01-10T03:00:06.467Z,4
2023-01-10T03:01:06.539Z,4
2023-01-10T03:02:06.073Z,4
2023-01-10T03:03:06.040Z,4
2023-01-10T03:04:06.026Z,4
2023-01-10T03:05:06.703Z,4
2023-01-10T03:06:05.555Z,4
2023-01-10T03:07:04.969Z,4
2023-01-10T03:08:06.411Z,4
2023-01-10T03:09:06.353Z,4
2023-01-10T03:10:06.601Z,4
2023-01-10T03:11:05.735Z,4
2023-01-10T03:12:06.535Z,4
2023-01-10T03:13:05.916Z,4
2023-01-10T03:14:05.756Z,4
2023-01-10T03:15:06.140Z,4
2023-01-10T03:16:05.989Z,4
2023-01-10T03:17:08.729Z,4
2023-01-10T03:18:05.316Z,4
2023-01-10T03:19:06.538Z,4
2023-01-10T03:20:06.729Z,4
2023-01-10T03:21:05.789Z,4
2023-01-10T03:22:06.250Z,4
2023-01-10T03:23:05.623Z,4
2023-01-10T03:24:04.882Z,4
2023-01-10T03:25:06.308Z,4
2023-01-10T03:26:06.577Z,4
2023-01-10T03:27:07.155Z,4
2023-01-10T03:28:05.979Z,4
2023-01-10T03:29:06.134Z,4
2023-01-10T03:30:06.632Z,4
2023-01-10T03:31:05.866Z,4
2023-01-10T03:32:05.356Z,4
2023-01-10T03:33:06.212Z,4
2023-01-10T03:34:05.980Z,4
2023-01-10T03:35:06.065Z,4
2023-01-10T03:36:05.830Z,4
2023-01-10T03:37:05.892Z,4
2023-01-10T03:38:06.015Z,4
2023-01-10T03:39:06.792Z,4
2023-01-10T03:40:06.235Z,4
2023-01-10T03:41:06.207Z,4
2023-01-10T03:42:06.486Z,4
2023-01-10T03:43:05.742Z,4
2023-01-10T03:44:05.968Z,4
2023-01-10T03:45:06.159Z,4
2023-01-10T03:46:05.573Z,4
2023-01-10T03:47:06.527Z,4
2023-01-10T03:48:06.081Z,4
2023-01-10T03:49:06.276Z,4
2023-01-10T03:50:06.331Z,4
2023-01-10T03:51:05.728Z,4
2023-01-10T03:52:06.506Z,4
2023-01-10T03:53:06.471Z,4
2023-01-10T03:54:05.852Z,4
2023-01-10T03:55:06.322Z,4
2023-01-10T03:56:06.550Z,4
2023-01-10T03:57:07.028Z,4
2023-01-10T03:58:05.954Z,4
2023-01-10T03:59:05.875Z,4
2023-01-10T04:00:06.174Z,4
2023-01-10T04:01:07.018Z,4
2023-01-10T04:02:06.257Z,4
2023-01-10T04:03:06.260Z,4
2023-01-10T04:04:06.854Z,4
2023-01-10T04:05:06.416Z,4
2023-01-10T04:06:06.684Z,4
2023-01-10T04:07:05.796Z,4
2023-01-10T04:08:05.824Z,4
2023-01-10T04:09:06.024Z,4
2023-01-10T04:10:06.573Z,4
2023-01-10T04:11:06.322Z,4
2023-01-10T04:12:05.792Z,4.1
2023-01-10T04:13:06.412Z,4
2023-01-10T04:14:05.852Z,4
2023-01-10T04:15:06.177Z,4
2023-01-10T04:16:06.027Z,4
2023-01-10T04:17:06.025Z,4.1
2023-01-10T04:18:06.271Z,4.1
2023-01-10T04:19:06.629Z,4
2023-01-10T04:20:06.435Z,4
2023-01-10T04:21:06.805Z,4
2023-01-10T04:22:05.334Z,4.1
2023-01-10T04:23:05.426Z,4.1
2023-01-10T04:24:05.715Z,4.1
2023-01-10T04:25:06.439Z,4.1
2023-01-10T04:26:05.774Z,4.1
2023-01-10T04:27:06.270Z,4.1
2023-01-10T04:28:05.885Z,4.1
2023-01-10T04:29:05.850Z,4.1
2023-01-10T04:30:05.869Z,4
2023-01-10T04:31:06.019Z,4.1
2023-01-10T04:32:05.856Z,4.1
2023-01-10T04:33:06.190Z,4.1
2023-01-10T04:34:05.801Z,4.1
2023-01-10T04:35:05.924Z,4.1
2023-01-10T04:36:05.522Z,4.1
2023-01-10T04:37:06.691Z,4.1
2023-01-10T04:38:06.044Z,4
2023-01-10T04:39:05.624Z,4.1
2023-01-10T04:40:05.762Z,4.1
2023-01-10T04:41:04.673Z,4
2023-01-10T04:42:05.688Z,4.1
2023-01-10T04:43:06.003Z,4.1
2023-01-10T04:44:06.358Z,4.1
2023-01-10T04:45:05.802Z,4.1
2023-01-10T04:46:06.392Z,4.1
2023-01-10T04:47:05.727Z,4
2023-01-10T04:48:06.109Z,4.1
2023-01-10T04:49:06.294Z,4.1
2023-01-10T04:50:05.877Z,4
2023-01-10T04:51:06.155Z,4
2023-01-10T04:52:05.339Z,4.1
2023-01-10T04:53:06.075Z,4.1
2023-01-10T04:54:06.403Z,4.1
2023-01-10T04:55:06.660Z,4.1
2023-01-10T04:56:06.691Z,4
2023-01-10T04:57:06.559Z,4.1
2023-01-10T04:58:05.960Z,4
2023-01-10T04:59:06.422Z,4
2023-01-10T05:00:06.794Z,4
2023-01-10T05:01:06.687Z,4
2023-01-10T05:02:06.801Z,4
2023-01-10T05:03:07.164Z,4
2023-01-10T05:04:05.984Z,4
2023-01-10T05:05:05.956Z,4
2023-01-10T05:06:06.101Z,4
2023-01-10T05:07:05.830Z,4
2023-01-10T05:08:06.174Z,4
2023-01-10T05:09:05.765Z,4
2023-01-10T05:10:06.412Z,4
2023-01-10T05:11:06.506Z,4
2023-01-10T05:12:05.687Z,4
2023-01-10T05:13:05.738Z,4
2023-01-10T05:14:05.732Z,4
2023-01-10T05:15:05.930Z,4
2023-01-10T05:16:05.892Z,4
2023-01-10T05:17:06.523Z,4
2023-01-10T05:18:05.873Z,4
2023-01-10T05:19:05.928Z,4
2023-01-10T05:20:04.563Z,4
2023-01-10T05:21:06.330Z,4
2023-01-10T05:22:06.572Z,4
2023-01-10T05:23:05.733Z,4
2023-01-10T05:24:06.236Z,4
2023-01-10T05:25:06.156Z,4
2023-01-10T05:26:05.729Z,4
2023-01-10T05:27:05.968Z,4
2023-01-10T05:28:06.427Z,4
2023-01-10T05:29:05.793Z,4
2023-01-10T05:30:05.842Z,4
2023-01-10T05:31:06.393Z,4
2023-01-10T05:32:05.838Z,4
2023-01-10T05:33:05.750Z,4
2023-01-10T05:34:06.292Z,4
2023-01-10T05:35:06.461Z,4
2023-01-10T05:36:05.782Z,4
2023-01-10T05:37:06.096Z,4
2023-01-10T05:38:05.238Z,4
2023-01-10T05:39:06.359Z,4
2023-01-10T05:40:05.766Z,4
2023-01-10T05:41:04.931Z,4
2023-01-10T05:42:05.830Z,4
2023-01-10T05:43:05.821Z,4
2023-01-10T05:44:06.098Z,4
2023-01-10T05:45:05.701Z,4
2023-01-10T05:46:06.273Z,4
2023-01-10T05:47:05.662Z,4
2023-01-10T05:48:05.963Z,4
2023-01-10T05:49:06.363Z,4
2023-01-10T05:50:06.712Z,4
2023-01-10T05:51:06.693Z,4
2023-01-10T05:52:05.978Z,4
2023-01-10T05:53:06.160Z,4
2023-01-10T05:54:06.337Z,4
2023-01-10T05:55:06.126Z,4
2023-01-10T05:56:05.596Z,4
2023-01-10T05:57:06.467Z,4
2023-01-10T05:58:06.198Z,4
2023-01-10T05:59:29.548Z,4
2023-01-10T06:00:09.018Z,4
2023-01-10T06:01:06.586Z,4
2023-01-10T06:02:06.457Z,4
2023-01-10T06:03:05.823Z,4
2023-01-10T06:04:06.388Z,4
2023-01-10T06:05:05.838Z,4
2023-01-10T06:07:06.520Z,4
2023-01-10T06:08:06.343Z,3.9
2023-01-10T06:09:05.700Z,4
2023-01-10T06:10:05.732Z,4
2023-01-10T06:11:05.930Z,4
2023-01-10T06:12:06.161Z,4
2023-01-10T06:13:05.011Z,4
2023-01-10T06:14:06.088Z,4
2023-01-10T06:15:06.329Z,4
2023-01-10T06:16:06.080Z,4
2023-01-10T06:17:05.772Z,4
2023-01-10T06:18:06.747Z,4
2023-01-10T06:19:06.452Z,4
2023-01-10T06:20:06.173Z,4
2023-01-10T06:21:06.059Z,4
2023-01-10T06:22:06.586Z,4
2023-01-10T06:23:05.914Z,4
2023-01-10T06:24:05.604Z,4
2023-01-10T06:25:06.860Z,4
2023-01-10T06:26:06.189Z,4
2023-01-10T06:27:06.562Z,4
2023-01-10T06:28:05.883Z,4
2023-01-10T06:29:06.257Z,4
2023-01-10T06:30:06.791Z,4
2023-01-10T06:31:06.163Z,4
2023-01-10T06:32:06.066Z,4
2023-01-10T06:33:06.527Z,4
2023-01-10T06:34:06.481Z,4
2023-01-10T06:35:05.583Z,4
2023-01-10T06:36:05.871Z,4
2023-01-10T06:37:06.255Z,4
2023-01-10T06:38:05.875Z,4
2023-01-10T06:39:05.598Z,4
2023-01-10T06:40:06.084Z,3.9
2023-01-10T06:41:06.200Z,3.9
2023-01-10T06:42:06.440Z,3.9
2023-01-10T06:43:05.853Z,3.9
2023-01-10T06:44:06.213Z,3.9
2023-01-10T06:45:06.587Z,3.9
2023-01-10T06:46:05.954Z,3.9
2023-01-10T06:47:06.392Z,3.9
2023-01-10T06:48:05.933Z,3.9
2023-01-10T06:49:05.162Z,3.9
2023-01-10T06:50:06.456Z,3.9
2023-01-10T06:51:06.166Z,3.9
2023-01-10T06:52:06.670Z,3.9
2023-01-10T06:53:06.289Z,3.9
2023-01-10T06:54:06.388Z,3.9
2023-01-10T06:55:06.597Z,3.9
2023-01-10T06:56:06.343Z,3.9
2023-01-10T06:57:06.024Z,3.9
2023-01-10T06:58:06.025Z,4
2023-01-10T06:59:08.340Z,3.9
2023-01-10T07:00:06.137Z,3.9
2023-01-10T07:01:06.642Z,3.9
2023-01-10T07:02:06.132Z,3.9
2023-01-10T07:03:05.754Z,4
2023-01-10T07:04:06.295Z,3.9
2023-01-10T07:05:06.229Z,3.8
2023-01-10T07:06:05.861Z,3.8
2023-01-10T07:07:06.569Z,3.8
2023-01-10T07:08:05.903Z,3.8
2023-01-10T07:09:06.408Z,3.8
2023-01-10T07:10:06.079Z,4
2023-01-10T07:11:06.254Z,3.8
2023-01-10T07:12:05.628Z,3.8
2023-01-10T07:13:05.905Z,3.8
2023-01-10T07:14:05.831Z,3.8
2023-01-10T07:15:05.080Z,3.8
2023-01-10T07:16:06.195Z,3.8
2023-01-10T07:17:05.734Z,3.9
2023-01-10T07:18:05.994Z,3.8
2023-01-10T07:19:05.788Z,3.8
2023-01-10T07:20:06.073Z,3.8
2023-01-10T07:21:06.482Z,3.8
2023-01-10T07:22:06.060Z,4
2023-01-10T07:23:05.986Z,3.8
2023-01-10T07:24:07.219Z,3.9
2023-01-10T07:25:06.706Z,3.9
2023-01-10T07:26:06.507Z,3.9
2023-01-10T07:27:06.134Z,3.9
2023-01-10T07:28:06.291Z,3.9
2023-01-10T07:29:06.160Z,3.9
2023-01-10T07:30:06.643Z,3.9
2023-01-10T07:31:06.715Z,3.9
2023-01-10T07:32:05.654Z,3.9
2023-01-10T07:33:05.755Z,3.9
2023-01-10T07:34:06.670Z,4
2023-01-10T07:35:06.029Z,4
2023-01-10T07:36:06.533Z,4
2023-01-10T07:37:06.163Z,3.9
2023-01-10T07:38:05.697Z,4
2023-01-10T07:39:05.098Z,3.9
2023-01-10T07:40:06.057Z,4
2023-01-10T07:41:06.505Z,4
2023-01-10T07:42:06.051Z,4
2023-01-10T07:43:05.860Z,4
2023-01-10T07:44:06.547Z,4
2023-01-10T07:45:06.281Z,4
2023-01-10T07:46:06.425Z,4
2023-01-10T07:47:05.838Z,4
2023-01-10T07:48:06.174Z,3.9
2023-01-10T07:49:05.443Z,4
2023-01-10T07:50:05.792Z,4
2023-01-10T07:51:05.444Z,4
2023-01-10T07:52:06.537Z,4
2023-01-10T07:53:06.699Z,4
2023-01-10T07:54:05.861Z,4
2023-01-10T07:55:06.016Z,4
2023-01-10T07:56:06.402Z,4
2023-01-10T07:57:05.966Z,4
2023-01-10T07:58:06.305Z,4
2023-01-10T07:59:06.639Z,4
2023-01-10T08:00:05.836Z,4
2023-01-10T08:01:06.228Z,4
2023-01-10T08:02:06.213Z,4
2023-01-10T08:03:07.096Z,4
2023-01-10T08:04:05.813Z,4
2023-01-10T08:05:05.188Z,4
2023-01-10T08:06:06.263Z,4
2023-01-10T08:07:05.935Z,4
2023-01-10T08:08:06.570Z,4
2023-01-10T08:09:05.846Z,4
2023-01-10T08:10:05.990Z,4
2023-01-10T08:11:06.200Z,4
2023-01-10T08:12:06.065Z,4
2023-01-10T08:13:21.618Z,4
2023-01-10T08:14:06.164Z,4
2023-01-10T08:15:05.836Z,4
2023-01-10T08:16:06.504Z,4
2023-01-10T08:17:06.539Z,4
2023-01-10T08:18:08.814Z,4
2023-01-10T08:19:05.914Z,4.1
2023-01-10T08:20:06.012Z,4.1
2023-01-10T08:21:06.300Z,4.1
2023-01-10T08:22:05.135Z,4.1
2023-01-10T08:23:06.377Z,4.1
2023-01-10T08:24:06.287Z,4.2
2023-01-10T08:25:06.115Z,4.2
2023-01-10T08:26:05.326Z,4.2
2023-01-10T08:27:06.503Z,4.2
2023-01-10T08:28:06.659Z,4.2
2023-01-10T08:29:06.283Z,4.2
2023-01-10T08:30:06.592Z,4.2
2023-01-10T08:31:06.673Z,4.2
2023-01-10T08:32:05.943Z,4.2
2023-01-10T08:33:06.086Z,4.3
2023-01-10T08:34:06.447Z,4.3
2023-01-10T08:35:05.982Z,4.3
2023-01-10T08:36:05.766Z,4
2023-01-10T08:37:06.722Z,4.3
2023-01-10T08:38:06.048Z,4.3
2023-01-10T08:39:06.388Z,4.3
2023-01-10T08:40:06.557Z,4.3
2023-01-10T08:41:05.873Z,4.3
2023-01-10T08:42:06.560Z,4.3
2023-01-10T08:43:06.165Z,4.3
2023-01-10T08:44:06.666Z,4.3
2023-01-10T08:45:05.830Z,4
2023-01-10T08:46:06.602Z,4.3
2023-01-10T08:47:06.013Z,4.3
2023-01-10T08:48:06.264Z,4.3
2023-01-10T08:49:05.475Z,4.3
2023-01-10T08:50:08.075Z,4.4
2023-01-10T08:51:06.052Z,4.4
2023-01-10T08:52:06.005Z,4.4
2023-01-10T08:53:05.771Z,4.4
2023-01-10T08:54:06.079Z,4.4
2023-01-10T08:55:05.801Z,4.4
2023-01-10T08:56:08.404Z,4.4
2023-01-10T08:57:05.735Z,4.4
2023-01-10T08:58:05.882Z,4
2023-01-10T08:59:06.140Z,4
2023-01-10T09:00:06.579Z,4
2023-01-10T09:01:06.242Z,4.4
2023-01-10T09:02:06.817Z,4.4
2023-01-10T09:03:06.146Z,4.4
2023-01-10T09:04:05.066Z,4.4
2023-01-10T09:05:06.364Z,4
2023-01-10T09:06:06.419Z,4.4
2023-01-10T09:07:05.825Z,4.4
2023-01-10T09:08:05.999Z,4.4
2023-01-10T09:09:06.004Z,4.4
2023-01-10T09:10:06.127Z,4
2023-01-10T09:11:05.676Z,4
2023-01-10T09:12:06.066Z,4.5
2023-01-10T09:13:06.354Z,4.5
2023-01-10T09:14:06.474Z,4.5
2023-01-10T09:15:05.902Z,4.5
2023-01-10T09:16:06.229Z,4.5
2023-01-10T09:17:06.300Z,4.6
2023-01-10T09:18:05.795Z,4.6
2023-01-10T09:19:06.525Z,4
2023-01-10T09:20:06.233Z,4.6
2023-01-10T09:21:06.269Z,4.6
2023-01-10T09:22:05.481Z,4
2023-01-10T09:23:06.052Z,4
2023-01-10T09:24:06.413Z,4.7
2023-01-10T09:25:05.684Z,4.7
2023-01-10T09:26:05.944Z,4.8
2023-01-10T09:27:06.157Z,4
2023-01-10T09:28:06.269Z,4.8
2023-01-10T09:29:05.073Z,4.9
2023-01-10T09:30:06.454Z,4.9
2023-01-10T09:31:05.594Z,4.9
2023-01-10T09:32:05.737Z,4.9
2023-01-10T09:33:05.868Z,4.9
2023-01-10T09:34:06.149Z,4.9
2023-01-10T09:35:05.637Z,4.8
2023-01-10T09:36:05.885Z,4.8
2023-01-10T09:37:06.012Z,4.9
2023-01-10T09:38:05.588Z,4.9
2023-01-10T09:39:05.897Z,4.9
2023-01-10T09:40:06.324Z,4.9
2023-01-10T09:41:05.620Z,4.9
2023-01-10T09:42:06.208Z,4.9
2023-01-10T09:43:05.819Z,5
2023-01-10T09:44:06.216Z,5
2023-01-10T09:45:05.376Z,5
2023-01-10T09:46:05.880Z,4.8
2023-01-10T09:47:14.347Z,4.9
2023-01-10T09:48:06.117Z,4.9
2023-01-10T09:49:05.051Z,4.9
2023-01-10T09:50:05.190Z,4.9
2023-01-10T09:51:06.577Z,4.9
2023-01-10T09:52:06.555Z,4.9
2023-01-10T09:53:06.044Z,4.9
2023-01-10T09:54:16.782Z,4.9
2023-01-10T09:55:05.559Z,5
2023-01-10T09:56:05.971Z,5
2023-01-10T09:57:06.352Z,5
2023-01-10T09:58:06.670Z,5.1
2023-01-10T09:59:06.509Z,5.1
2023-01-10T10:00:05.683Z,5.1
2023-01-10T10:01:06.844Z,5.1
2023-01-10T10:02:06.140Z,5.2
2023-01-10T10:03:06.274Z,5.2
2023-01-10T10:04:06.422Z,5.2
2023-01-10T10:05:06.355Z,5
2023-01-10T10:07:05.851Z,5
2023-01-10T10:08:06.320Z,5.2
2023-01-10T10:09:08.962Z,5.2
2023-01-10T10:10:06.235Z,5.2
2023-01-10T10:11:06.466Z,5.2
2023-01-10T10:12:05.799Z,5.2
2023-01-10T10:13:06.840Z,5.2
2023-01-10T10:14:06.493Z,5.2
2023-01-10T10:15:06.609Z,5.2
2023-01-10T10:16:05.790Z,5.2
2023-01-10T10:17:05.761Z,5.2
2023-01-10T10:18:06.219Z,5.2
2023-01-10T10:19:06.360Z,5.1
2023-01-10T10:20:05.829Z,5.2
2023-01-10T10:21:05.773Z,5.2
2023-01-10T10:22:05.429Z,5.1
2023-01-10T10:23:06.499Z,5.1
2023-01-10T10:24:06.149Z,5.1
2023-01-10T10:25:06.536Z,5.1
2023-01-10T10:26:06.873Z,5.1
2023-01-10T10:27:05.999Z,5.2
2023-01-10T10:28:05.791Z,5.1
2023-01-10T10:29:05.946Z,5.1
2023-01-10T10:30:06.078Z,5.1
2023-01-10T10:31:06.350Z,5.1
2023-01-10T10:32:06.416Z,5.2
2023-01-10T10:33:06.505Z,5.2
2023-01-10T10:34:05.872Z,5.1
2023-01-10T10:35:05.558Z,5.2
2023-01-10T10:36:06.515Z,5.1
2023-01-10T10:37:05.764Z,5.1
2023-01-10T10:38:05.939Z,5.1
2023-01-10T10:39:06.720Z,5.1
2023-01-10T10:40:05.941Z,5.1
2023-01-10T10:41:06.150Z,5.1
2023-01-10T10:42:06.228Z,5.2
2023-01-10T10:43:06.590Z,5.2
2023-01-10T10:44:06.419Z,5.2
2023-01-10T10:45:05.756Z,5.2
2023-01-10T10:46:05.738Z,5.2
2023-01-10T10:47:06.589Z,5.1
2023-01-10T10:48:05.832Z,5.2
2023-01-10T10:49:06.529Z,5.2
2023-01-10T10:50:06.663Z,5.2
2023-01-10T10:51:06.545Z,5.2
2023-01-10T10:52:06.283Z,5.1
2023-01-10T10:53:05.751Z,5
2023-01-10T10:54:06.471Z,5
2023-01-10T10:55:06.312Z,5.2
2023-01-10T10:56:06.177Z,5.2
2023-01-10T10:57:05.671Z,5.2
2023-01-10T10:58:06.381Z,5.2
2023-01-10T10:59:05.688Z,5.2
2023-01-10T11:00:05.851Z,5.2
2023-01-10T11:01:06.780Z,5.2
2023-01-10T11:02:06.916Z,5.2
2023-01-10T11:03:05.869Z,5.2
2023-01-10T11:04:06.109Z,5.2
2023-01-10T11:05:06.631Z,5.3
2023-01-10T11:06:06.547Z,5.3
2023-01-10T11:07:06.263Z,5.3
2023-01-10T11:08:06.790Z,5.3
2023-01-10T11:09:05.911Z,5.3
2023-01-10T11:10:05.701Z,5.3
2023-01-10T11:11:05.033Z,5.3
2023-01-10T11:12:05.662Z,5.3
2023-01-10T11:13:06.319Z,5.3
2023-01-10T11:14:06.563Z,5.4
2023-01-10T11:15:05.867Z,5.4
2023-01-10T11:16:06.193Z,5.4
2023-01-10T11:17:06.012Z,5.4
2023-01-10T11:18:06.319Z,5
2023-01-10T11:19:05.929Z,5
2023-01-10T11:20:06.047Z,5.4
2023-01-10T11:21:06.022Z,5.4
2023-01-10T11:22:06.207Z,5.4
2023-01-10T11:23:06.310Z,5.5
2023-01-10T11:24:06.749Z,5.5
2023-01-10T11:25:05.813Z,5.5
2023-01-10T11:26:05.819Z,5.5
2023-01-10T11:27:06.217Z,5.5
2023-01-10T11:28:06.625Z,5.6
2023-01-10T11:29:06.159Z,5
2023-01-10T11:30:06.743Z,5.6
2023-01-10T11:31:05.783Z,5.6
2023-01-10T11:32:06.627Z,5.6
2023-01-10T11:33:06.267Z,5.7
2023-01-10T11:34:06.227Z,5.7
2023-01-10T11:35:06.352Z,5.7
2023-01-10T11:36:06.542Z,5.7
2023-01-10T11:37:05.616Z,5.7
2023-01-10T11:38:05.891Z,5.7
2023-01-10T11:39:06.105Z,5.7
2023-01-10T11:40:06.450Z,5.7
2023-01-10T11:41:05.735Z,5.7
2023-01-10T11:42:06.478Z,5.6
2023-01-10T11:43:05.732Z,5.6
2023-01-10T11:44:06.042Z,5.7
2023-01-10T11:45:06.267Z,5.6
2023-01-10T11:46:06.823Z,5
2023-01-10T11:47:06.012Z,5.6
2023-01-10T11:48:06.244Z,5.6
2023-01-10T11:49:12.236Z,5.6
2023-01-10T11:50:06.057Z,5.6
2023-01-10T11:51:06.432Z,5.5
2023-01-10T11:52:06.322Z,5.5
2023-01-10T11:53:06.452Z,5.5
2023-01-10T11:54:06.442Z,5.5
2023-01-10T11:55:05.993Z,5.5
2023-01-10T11:56:05.819Z,5.5
2023-01-10T11:57:06.452Z,5.4
2023-01-10T11:58:06.560Z,5.4
2023-01-10T11:59:06.771Z,5.5
2023-01-10T12:00:05.863Z,5.4
2023-01-10T12:01:06.545Z,5.4
2023-01-10T12:02:06.840Z,5.4
2023-01-10T12:03:05.880Z,5.4
2023-01-10T12:04:06.316Z,5.4
2023-01-10T12:05:05.947Z,5.4
2023-01-10T12:06:06.127Z,5.5
2023-01-10T12:07:08.482Z,5.5
2023-01-10T12:08:06.787Z,5.5
2023-01-10T12:09:05.991Z,5.5
2023-01-10T12:10:06.442Z,5.5
2023-01-10T12:11:05.941Z,5.5
2023-01-10T12:12:06.097Z,5.4
2023-01-10T12:13:06.758Z,5.5
2023-01-10T12:14:06.519Z,5.5
2023-01-10T12:15:05.790Z,5.5
2023-01-10T12:16:05.657Z,5.4
2023-01-10T12:17:06.800Z,5.5
2023-01-10T12:18:05.845Z,5.4
2023-01-10T12:19:06.034Z,5.4
2023-01-10T12:20:05.846Z,5.4
2023-01-10T12:21:05.874Z,5.4
2023-01-10T12:22:06.141Z,5.4
2023-01-10T12:23:05.952Z,5
2023-01-10T12:24:06.744Z,5.5
2023-01-10T12:25:05.831Z,5.5
2023-01-10T12:26:15.781Z,5.5
2023-01-10T12:27:06.296Z,5.5
2023-01-10T12:28:06.504Z,5
2023-01-10T12:29:06.331Z,5.4
2023-01-10T12:30:06.551Z,5.4
2023-01-10T12:31:06.603Z,5.4
2023-01-10T12:32:05.985Z,5.4
2023-01-10T12:33:06.245Z,5.5
2023-01-10T12:34:06.313Z,5.4
2023-01-10T12:35:06.610Z,5.4
2023-01-10T12:36:05.908Z,5.4
2023-01-10T12:37:05.955Z,5.4
2023-01-10T12:38:06.493Z,5.4
2023-01-10T12:39:06.495Z,5.4
2023-01-10T12:40:05.910Z,5.4
2023-01-10T12:41:06.447Z,5.4
2023-01-10T12:42:06.470Z,5.4
2023-01-10T12:43:06.054Z,5.4
2023-01-10T12:44:05.724Z,5.4
2023-01-10T12:45:05.943Z,5.4
2023-01-10T12:47:00.325Z,5.4
2023-01-10T12:47:15.393Z,5.4
2023-01-10T12:48:05.718Z,5.4
2023-01-10T12:49:05.741Z,5.4
2023-01-10T12:50:06.132Z,5.4
2023-01-10T12:51:05.825Z,5.4
2023-01-10T12:52:05.353Z,5.4
2023-01-10T12:53:06.346Z,5.4
2023-01-10T12:54:06.058Z,5.5
2023-01-10T12:55:06.428Z,5.5
2023-01-10T12:56:06.324Z,5.5
2023-01-10T12:57:06.529Z,5.5
2023-01-10T12:58:05.784Z,5.5
2023-01-10T12:59:06.199Z,5.5
2023-01-10T13:00:06.659Z,5.5
2023-01-10T13:01:06.965Z,5.6
2023-01-10T13:02:06.223Z,5.6
2023-01-10T13:03:06.654Z,5.6
2023-01-10T13:04:05.666Z,5.6
2023-01-10T13:05:06.570Z,5.6
2023-01-10T13:06:05.936Z,5.6
2023-01-10T13:07:06.454Z,5.6
2023-01-10T13:08:06.649Z,5.6
2023-01-10T13:09:05.814Z,5.6
2023-01-10T13:10:06.268Z,5.6
2023-01-10T13:11:06.118Z,5.6
2023-01-10T13:12:06.040Z,5.6
2023-01-10T13:13:05.677Z,5.6
2023-01-10T13:14:06.124Z,5.6
2023-01-10T13:15:06.448Z,5.6
2023-01-10T13:16:06.452Z,5.6
2023-01-10T13:17:05.694Z,5.6
2023-01-10T13:18:06.093Z,5.6
2023-01-10T13:19:06.363Z,5.6
2023-01-10T13:20:06.137Z,5.6
2023-01-10T13:21:06.035Z,5.6
2023-01-10T13:22:06.558Z,5.6
2023-01-10T13:23:06.203Z,5.6
2023-01-10T13:24:06.566Z,5.6
2023-01-10T13:25:05.908Z,5.6
2023-01-10T13:26:06.219Z,5.6
2023-01-10T13:27:05.763Z,5.6
2023-01-10T13:28:06.075Z,5.6
2023-01-10T13:29:06.397Z,5.6
2023-01-10T13:30:06.049Z,5.6
2023-01-10T13:31:06.232Z,5.6
2023-01-10T13:32:06.429Z,5.6
2023-01-10T13:33:05.750Z,5.6
2023-01-10T13:34:05.415Z,5.6
2023-01-10T13:35:06.304Z,5.6
2023-01-10T13:36:07.243Z,5.6
2023-01-10T13:37:05.783Z,5.6
2023-01-10T13:38:06.001Z,5.6
2023-01-10T13:39:05.752Z,5.5
2023-01-10T13:40:06.093Z,5.5
2023-01-10T13:41:05.715Z,5.5
2023-01-10T13:42:06.481Z,5.5
2023-01-10T13:43:05.976Z,5.5
2023-01-10T13:44:06.128Z,5.5
2023-01-10T13:45:06.471Z,5.5
2023-01-10T13:46:06.536Z,5.4
2023-01-10T13:47:05.984Z,5.5
2023-01-10T13:48:06.655Z,5.4
2023-01-10T13:49:08.924Z,5.4
2023-01-10T13:50:05.972Z,5.4
2023-01-10T13:51:06.150Z,5
2023-01-10T13:52:06.519Z,5.5
2023-01-10T13:53:05.809Z,5.5
2023-01-10T13:54:06.034Z,5.5
2023-01-10T13:55:06.443Z,5.6
2023-01-10T13:56:05.886Z,5.5
2023-01-10T13:57:06.383Z,5.5
2023-01-10T13:58:05.686Z,5.6
2023-01-10T13:59:05.802Z,5.6
2023-01-10T14:00:05.074Z,5.5
2023-01-10T14:01:06.113Z,5.5
2023-01-10T14:02:06.430Z,5
2023-01-10T14:03:06.312Z,5.5
2023-01-10T14:04:06.614Z,5.5
2023-01-10T14:05:05.914Z,5.5
2023-01-10T14:06:05.867Z,5.5
2023-01-10T14:07:06.350Z,5.5
2023-01-10T14:08:05.917Z,5.5